createdAt,value
2023-05-18T00:02:21.601Z,11.53
2023-05-18T00:04:48.388Z,11.43
2023-05-18T00:07:15.644Z,10.93
2023-05-18T00:09:42.165Z,9.00
2023-05-18T00:12:09.974Z,9.63
2023-05-18T00:14:36.713Z,9.00
2023-05-18T00:17:03.279Z,9.67
2023-05-18T00:19:33.426Z,9.03
2023-05-18T00:22:02.386Z,8.20
2023-05-18T00:24:28.962Z,8.07
2023-05-18T00:26:55.474Z,7.93
2023-05-18T00:29:22.012Z,6.90
2023-05-18T00:31:48.630Z,6.00
2023-05-18T00:34:15.393Z,7.43
2023-05-18T00:36:41.975Z,6.43
2023-05-18T00:39:09.373Z,6.83
2023-05-18T00:41:36.033Z,6.60
2023-05-18T00:44:02.617Z,6.43
2023-05-18T00:46:29.257Z,5.80
2023-05-18T00:48:57.260Z,6.17
2023-05-18T00:51:24.038Z,6.00
2023-05-18T00:53:51.250Z,5.77
2023-05-18T00:56:17.815Z,6.37
2023-05-18T00:58:44.398Z,6.57
2023-05-18T01:01:10.976Z,5.80
2023-05-18T01:03:40.531Z,5.63
2023-05-18T01:06:07.279Z,6.67
2023-05-18T01:08:34.327Z,6.70
2023-05-18T01:11:04.021Z,6.77
2023-05-18T01:13:36.555Z,6.37
2023-05-18T01:16:04.473Z,6.80
2023-05-18T01:18:34.456Z,6.57
2023-05-18T01:21:01.018Z,6.20
2023-05-18T01:23:29.765Z,6.47
2023-05-18T01:25:56.400Z,6.10
2023-05-18T01:28:28.628Z,5.70
2023-05-18T01:30:55.264Z,5.47
2023-05-18T01:33:21.818Z,5.10
2023-05-18T01:35:48.915Z,5.43
2023-05-18T01:38:16.551Z,4.83
2023-05-18T01:40:56.289Z,5.67
2023-05-18T01:43:23.938Z,4.50
2023-05-18T01:45:51.309Z,5.20
2023-05-18T01:48:18.872Z,4.87
2023-05-18T01:50:46.195Z,5.27
2023-05-18T01:53:13.756Z,4.57
2023-05-18T01:55:40.468Z,5.13
2023-05-18T01:58:07.053Z,5.30
2023-05-18T02:00:33.711Z,4.50
2023-05-18T02:03:00.668Z,5.27
2023-05-18T02:05:27.501Z,5.07
2023-05-18T02:07:54.101Z,4.10
2023-05-18T02:10:20.673Z,4.60
2023-05-18T02:12:52.591Z,4.33
2023-05-18T02:15:19.165Z,5.23
2023-05-18T02:17:45.733Z,5.27
2023-05-18T02:20:12.310Z,4.63
2023-05-18T02:22:38.874Z,4.57
2023-05-18T02:25:05.922Z,3.87
2023-05-18T02:27:33.579Z,4.63
2023-05-18T02:30:00.134Z,4.30
2023-05-18T02:32:26.685Z,4.13
2023-05-18T02:34:53.466Z,4.23
2023-05-18T02:37:20.177Z,3.43
2023-05-18T02:39:46.686Z,4.33
2023-05-18T02:42:13.834Z,4.37
2023-05-18T02:44:42.272Z,3.83
2023-05-18T02:47:08.778Z,3.43
2023-05-18T02:49:35.303Z,3.63
2023-05-18T02:52:01.890Z,4.07
2023-05-18T02:54:28.412Z,3.07
2023-05-18T02:56:57.088Z,3.40
2023-05-18T02:59:23.698Z,4.03
2023-05-18T03:01:50.821Z,2.77
2023-05-18T03:04:17.711Z,2.83
2023-05-18T03:06:46.698Z,3.03
2023-05-18T03:09:13.430Z,2.87
2023-05-18T03:11:39.977Z,3.40
2023-05-18T03:14:06.580Z,2.97
2023-05-18T03:16:33.271Z,3.83
2023-05-18T03:19:02.350Z,2.87
2023-05-18T03:21:33.782Z,3.13
2023-05-18T03:24:00.530Z,3.37
2023-05-18T03:26:30.936Z,3.33
2023-05-18T03:28:57.850Z,3.40
2023-05-18T03:31:24.947Z,3.20
2023-05-18T03:33:51.651Z,2.47
2023-05-18T03:36:18.154Z,3.10
2023-05-18T03:38:47.604Z,3.03
2023-05-18T03:41:14.370Z,3.43
2023-05-18T03:43:40.960Z,3.03
2023-05-18T03:46:07.502Z,3.23
2023-05-18T03:48:34.238Z,3.10
2023-05-18T03:51:00.870Z,3.20
2023-05-18T03:53:27.462Z,3.20
2023-05-18T03:55:54.008Z,3.20
2023-05-18T03:58:20.538Z,2.53
2023-05-18T04:00:47.476Z,3.40
2023-05-18T04:03:14.859Z,2.90
2023-05-18T04:05:43.589Z,2.60
2023-05-18T04:08:11.044Z,2.53
2023-05-18T04:10:37.541Z,2.83
2023-05-18T04:13:04.113Z,2.63
2023-05-18T04:15:31.357Z,2.50
2023-05-18T04:17:58.211Z,2.90
2023-05-18T04:20:28.436Z,2.73
2023-05-18T04:22:55.602Z,2.40
2023-05-18T04:25:22.142Z,2.73
2023-05-18T04:27:51.644Z,2.73
2023-05-18T04:30:18.961Z,2.87
2023-05-18T04:32:45.665Z,3.53
2023-05-18T04:35:12.294Z,3.13
2023-05-18T04:37:43.071Z,3.03
2023-05-18T04:40:18.807Z,3.20
2023-05-18T04:42:48.452Z,3.70
2023-05-18T04:45:19.627Z,3.73
2023-05-18T04:47:47.046Z,3.23
2023-05-18T04:50:17.350Z,4.07
2023-05-18T04:52:48.695Z,3.70
2023-05-18T04:55:23.331Z,2.40
2023-05-18T04:57:50.643Z,4.17
2023-05-18T05:00:17.577Z,3.43
2023-05-18T05:02:44.571Z,3.20
2023-05-18T05:05:11.318Z,3.80
2023-05-18T05:07:37.894Z,3.60
2023-05-18T05:10:04.546Z,2.83
2023-05-18T05:12:31.190Z,4.43
2023-05-18T05:14:57.697Z,3.23
2023-05-18T05:17:24.577Z,3.80
2023-05-18T05:19:51.228Z,3.60
2023-05-18T05:22:19.862Z,4.13
2023-05-18T05:24:46.512Z,3.60
2023-05-18T05:27:13.029Z,2.90
2023-05-18T05:29:39.603Z,4.30
2023-05-18T05:32:06.375Z,3.07
2023-05-18T05:34:32.873Z,3.30
2023-05-18T05:36:59.388Z,2.83
2023-05-18T05:39:26.095Z,3.57
2023-05-18T05:41:52.589Z,3.00
2023-05-18T05:44:19.132Z,3.40
2023-05-18T05:46:46.007Z,4.50
2023-05-18T05:49:12.995Z,3.90
2023-05-18T05:51:39.480Z,4.43
2023-05-18T05:54:06.699Z,3.43
2023-05-18T05:56:33.967Z,3.43
2023-05-18T05:59:01.096Z,3.27
2023-05-18T06:01:27.703Z,3.03
2023-05-18T06:03:54.318Z,3.20
2023-05-18T06:06:21.940Z,4.80
2023-05-18T06:08:48.476Z,3.07
2023-05-18T06:11:14.967Z,4.40
2023-05-18T06:13:42.028Z,3.27
2023-05-18T06:16:08.670Z,3.83
2023-05-18T06:18:35.349Z,4.37
2023-05-18T06:21:01.919Z,3.80
2023-05-18T06:23:28.474Z,4.23
2023-05-18T06:25:54.984Z,3.73
2023-05-18T06:28:22.094Z,4.90
2023-05-18T06:30:48.716Z,3.67
2023-05-18T06:33:15.282Z,3.60
2023-05-18T06:35:42.089Z,3.77
2023-05-18T06:38:08.840Z,3.93
2023-05-18T06:40:35.647Z,3.20
2023-05-18T06:43:02.193Z,3.70
2023-05-18T06:45:28.876Z,2.87
2023-05-18T06:47:55.762Z,3.40
2023-05-18T06:50:22.311Z,3.47
2023-05-18T06:52:48.805Z,3.10
2023-05-18T06:55:15.534Z,3.13
2023-05-18T06:57:42.256Z,2.80
2023-05-18T07:00:09.142Z,4.00
2023-05-18T07:02:35.784Z,3.33
2023-05-18T07:05:05.519Z,2.90
2023-05-18T07:07:32.246Z,3.53
2023-05-18T07:09:59.066Z,3.20
2023-05-18T07:12:26.961Z,1.67
2023-05-18T07:14:53.453Z,2.83
2023-05-18T07:17:20.017Z,2.07
2023-05-18T07:19:46.663Z,1.13
2023-05-18T07:22:13.189Z,1.30
2023-05-18T07:24:39.732Z,1.60
2023-05-18T07:27:06.346Z,1.60
2023-05-18T07:29:33.016Z,1.20
2023-05-18T07:31:59.718Z,1.17
2023-05-18T07:34:27.363Z,1.10
2023-05-18T07:36:54.104Z,1.07
2023-05-18T07:39:20.829Z,1.10
2023-05-18T07:41:48.501Z,0.93
2023-05-18T07:44:15.308Z,1.10
2023-05-18T07:46:42.074Z,1.40
2023-05-18T07:49:08.938Z,1.23
2023-05-18T07:51:35.557Z,1.10
2023-05-18T07:54:02.118Z,1.27
2023-05-18T07:56:28.734Z,1.10
2023-05-18T07:58:55.299Z,1.90
2023-05-18T08:03:54.688Z,1.17
2023-05-18T08:06:21.461Z,1.20
2023-05-18T08:08:48.090Z,0.80
2023-05-18T08:11:14.614Z,1.37
2023-05-18T08:13:41.256Z,1.43
2023-05-18T08:16:12.357Z,1.10
2023-05-18T08:18:39.334Z,2.17
2023-05-18T08:21:08.337Z,1.67
2023-05-18T08:23:35.400Z,2.00
2023-05-18T08:26:03.658Z,1.97
2023-05-18T08:28:30.658Z,2.30
2023-05-18T08:30:57.182Z,2.27
2023-05-18T08:33:23.982Z,4.17
2023-05-18T08:35:50.518Z,4.30
2023-05-18T08:38:17.053Z,2.93
2023-05-18T08:41:02.790Z,2.60
2023-05-18T08:43:33.511Z,2.17
2023-05-18T08:46:26.536Z,2.07
2023-05-18T08:48:56.083Z,1.77
2023-05-18T08:51:22.827Z,2.57
2023-05-18T08:53:52.805Z,2.13
2023-05-18T08:56:20.158Z,2.00
2023-05-18T08:58:48.302Z,1.00
2023-05-18T09:01:14.888Z,1.20
2023-05-18T09:03:41.852Z,1.50
2023-05-18T09:06:08.656Z,1.63
2023-05-18T09:08:35.642Z,2.90
2023-05-18T09:11:02.441Z,1.90
2023-05-18T09:13:29.129Z,1.03
2023-05-18T09:15:55.736Z,1.20
2023-05-18T09:18:24.016Z,1.00
2023-05-18T09:20:52.044Z,1.10
2023-05-18T09:23:18.652Z,0.90
2023-05-18T09:25:46.082Z,1.10
2023-05-18T09:28:13.605Z,1.17
2023-05-18T09:30:41.337Z,1.33
2023-05-18T09:33:17.970Z,1.10
2023-05-18T09:35:45.182Z,1.00
2023-05-18T09:38:12.288Z,1.17
2023-05-18T09:40:38.825Z,1.20
2023-05-18T09:43:08.403Z,1.00
2023-05-18T09:45:35.163Z,1.20
2023-05-18T09:48:01.719Z,0.90
2023-05-18T09:50:28.339Z,1.00
2023-05-18T09:52:54.978Z,0.80
2023-05-18T09:55:21.513Z,0.90
2023-05-18T09:57:48.739Z,0.80
2023-05-18T10:00:15.825Z,0.87
2023-05-18T10:02:43.518Z,1.13
2023-05-18T10:05:20.289Z,0.93
2023-05-18T10:07:47.205Z,0.90
2023-05-18T10:10:13.786Z,0.80
2023-05-18T10:12:41.090Z,0.93
2023-05-18T10:15:11.115Z,0.80
2023-05-18T10:17:38.044Z,0.70
2023-05-18T10:20:05.968Z,0.70
2023-05-18T10:22:32.559Z,0.70
2023-05-18T10:24:59.083Z,0.80
2023-05-18T10:27:27.443Z,0.83
2023-05-18T10:29:55.344Z,1.30
2023-05-18T10:32:22.000Z,1.10
2023-05-18T10:34:48.572Z,1.20
2023-05-18T10:37:15.266Z,1.10
2023-05-18T10:39:42.463Z,1.13
2023-05-18T10:42:09.570Z,1.10
2023-05-18T10:44:36.187Z,1.07
2023-05-18T10:47:03.851Z,0.87
2023-05-18T10:49:30.568Z,0.90
2023-05-18T10:51:57.165Z,0.70
2023-05-18T10:54:24.108Z,1.00
2023-05-18T10:56:52.051Z,0.90
2023-05-18T10:59:18.933Z,0.77
2023-05-18T11:01:46.087Z,1.33
2023-05-18T11:04:12.870Z,0.90
2023-05-18T11:06:39.605Z,0.90
2023-05-18T11:09:06.548Z,0.80
2023-05-18T11:11:52.904Z,0.90
2023-05-18T11:14:26.692Z,0.87
2023-05-18T11:16:53.391Z,0.80
2023-05-18T11:19:20.665Z,0.87
2023-05-18T11:21:47.448Z,0.80
2023-05-18T11:24:32.664Z,0.90
2023-05-18T11:27:00.185Z,1.00
2023-05-18T11:29:37.390Z,1.33
2023-05-18T11:32:05.240Z,1.10
2023-05-18T11:34:37.265Z,1.23
2023-05-18T11:37:06.818Z,1.00
2023-05-18T11:39:34.777Z,1.13
2023-05-18T11:42:04.392Z,0.97
2023-05-18T11:44:31.564Z,1.07
2023-05-18T11:47:04.923Z,1.00
2023-05-18T11:49:32.311Z,1.07
2023-05-18T11:52:14.220Z,1.07
2023-05-18T11:54:42.045Z,1.10
2023-05-18T11:57:08.847Z,0.97
2023-05-18T11:59:42.357Z,1.20
2023-05-18T12:02:11.838Z,1.20
2023-05-18T12:04:45.578Z,1.40
2023-05-18T12:07:12.265Z,1.13
2023-05-18T12:09:43.201Z,1.03
2023-05-18T12:12:11.469Z,1.10
2023-05-18T12:14:50.346Z,1.20
2023-05-18T12:17:16.989Z,1.20
2023-05-18T12:19:44.405Z,1.40
2023-05-18T12:22:11.674Z,1.63
2023-05-18T12:24:38.884Z,1.17
2023-05-18T12:27:09.497Z,1.40
2023-05-18T12:29:39.745Z,1.20
2023-05-18T12:32:07.342Z,1.33
2023-05-18T12:34:33.948Z,1.80
2023-05-18T12:37:00.581Z,1.40
2023-05-18T12:39:28.769Z,1.40
2023-05-18T12:42:08.023Z,1.90
2023-05-18T12:44:34.614Z,1.13
2023-05-18T12:47:01.606Z,1.53
2023-05-18T12:49:28.230Z,1.20
2023-05-18T12:51:55.502Z,1.90
2023-05-18T12:54:28.932Z,1.60
2023-05-18T12:57:02.531Z,1.40
2023-05-18T12:59:29.302Z,2.30
2023-05-18T13:01:58.682Z,1.33
2023-05-18T13:04:32.793Z,1.90
2023-05-18T13:06:59.340Z,1.87
2023-05-18T13:09:25.914Z,1.30
2023-05-18T13:12:03.932Z,1.97
2023-05-18T13:14:37.318Z,1.70
2023-05-18T13:17:04.024Z,2.47
2023-05-18T13:19:31.742Z,1.87
2023-05-18T13:21:58.350Z,1.93
2023-05-18T13:24:24.887Z,2.53
2023-05-18T13:26:51.477Z,2.93
2023-05-18T13:29:18.113Z,2.30
2023-05-18T13:31:44.760Z,1.80
2023-05-18T13:34:11.613Z,1.87
2023-05-18T13:36:38.280Z,2.10
2023-05-18T13:39:07.429Z,2.03
2023-05-18T13:41:36.620Z,1.50
2023-05-18T13:44:03.718Z,1.57
2023-05-18T13:46:30.545Z,1.53
2023-05-18T13:48:57.156Z,1.30
2023-05-18T13:51:23.771Z,1.17
2023-05-18T13:53:50.603Z,1.10
2023-05-18T13:56:17.156Z,1.20
2023-05-18T13:58:43.766Z,1.50
2023-05-18T14:01:13.413Z,1.47
2023-05-18T14:03:40.790Z,1.13
2023-05-18T14:06:07.533Z,1.37
2023-05-18T14:08:34.296Z,1.90
2023-05-18T14:11:01.076Z,1.60
2023-05-18T14:13:27.629Z,1.93
2023-05-18T14:15:54.188Z,2.20
2023-05-18T14:18:20.890Z,1.67
2023-05-18T14:20:48.557Z,1.63
2023-05-18T14:23:15.182Z,1.20
2023-05-18T14:25:43.763Z,1.60
2023-05-18T14:28:10.747Z,1.17
2023-05-18T14:30:37.379Z,1.10
2023-05-18T14:33:04.316Z,1.20
2023-05-18T14:35:31.255Z,0.83
2023-05-18T14:37:57.848Z,0.93
2023-05-18T14:40:24.428Z,1.20
2023-05-18T14:42:53.002Z,1.40
2023-05-18T14:45:20.735Z,1.73
2023-05-18T14:47:48.148Z,1.13
2023-05-18T14:50:14.720Z,1.50
2023-05-18T14:52:41.403Z,1.60
2023-05-18T14:55:08.178Z,1.60
2023-05-18T14:57:34.703Z,0.83
2023-05-18T15:00:01.258Z,1.00
2023-05-18T15:02:27.941Z,0.70
2023-05-18T15:04:54.612Z,0.80
2023-05-18T15:07:21.170Z,0.70
2023-05-18T15:09:47.751Z,1.20
2023-05-18T15:12:14.298Z,1.20
2023-05-18T15:14:40.854Z,0.97
2023-05-18T15:17:08.678Z,1.00
2023-05-18T15:19:35.264Z,0.80
2023-05-18T15:22:01.808Z,0.80
2023-05-18T15:24:28.421Z,0.60
2023-05-18T15:26:55.008Z,0.60
2023-05-18T15:29:21.812Z,0.50
2023-05-18T15:31:51.263Z,0.40
2023-05-18T15:34:18.002Z,0.50
2023-05-18T15:36:44.582Z,0.40
2023-05-18T15:39:11.162Z,0.50
2023-05-18T15:41:37.751Z,0.50
2023-05-18T15:44:04.539Z,0.50
2023-05-18T15:46:32.269Z,0.57
2023-05-18T15:48:58.853Z,0.60
2023-05-18T15:51:25.581Z,0.60
2023-05-18T15:53:52.165Z,0.50
2023-05-18T15:56:19.110Z,0.50
2023-05-18T15:58:45.708Z,0.70
2023-05-18T16:01:12.321Z,0.50
2023-05-18T16:03:39.094Z,0.50
2023-05-18T16:06:05.771Z,0.77
2023-05-18T16:08:32.356Z,0.80
2023-05-18T16:10:58.902Z,0.80
2023-05-18T16:13:27.373Z,0.97
2023-05-18T16:15:53.936Z,0.60
2023-05-18T16:18:20.539Z,0.70
2023-05-18T16:20:47.137Z,1.00
2023-05-18T16:23:13.815Z,0.83
2023-05-18T16:25:40.445Z,1.07
2023-05-18T16:28:06.965Z,0.87
2023-05-18T16:30:33.671Z,1.07
2023-05-18T16:33:00.554Z,1.10
2023-05-18T16:35:27.338Z,1.10
2023-05-18T16:37:53.997Z,1.03
2023-05-18T16:40:20.801Z,1.00
2023-05-18T16:42:48.966Z,1.57
2023-05-18T16:45:15.666Z,1.07
2023-05-18T16:47:42.420Z,1.10
2023-05-18T16:50:09.284Z,1.47
2023-05-18T16:52:36.119Z,1.33
2023-05-18T16:55:02.757Z,2.00
2023-05-18T16:57:30.254Z,2.40
2023-05-18T16:59:56.814Z,2.50
2023-05-18T17:02:24.431Z,2.40
2023-05-18T17:04:51.272Z,2.43
2023-05-18T17:07:17.774Z,2.20
2023-05-18T17:09:44.534Z,2.37
2023-05-18T17:12:11.503Z,3.17
2023-05-18T17:14:38.261Z,2.30
2023-05-18T17:17:05.391Z,2.37
2023-05-18T17:19:32.051Z,2.40
2023-05-18T17:21:58.630Z,2.20
2023-05-18T17:24:25.332Z,2.40
2023-05-18T17:26:52.051Z,2.73
2023-05-18T17:29:20.352Z,2.40
2023-05-18T17:31:48.396Z,2.63
2023-05-18T17:34:15.043Z,2.80
2023-05-18T17:36:42.661Z,2.63
2023-05-18T17:39:09.391Z,2.73
2023-05-18T17:41:36.512Z,2.97
2023-05-18T17:44:03.164Z,3.43
2023-05-18T17:46:29.797Z,3.07
2023-05-18T17:48:56.528Z,3.60
2023-05-18T17:51:25.169Z,4.10
2023-05-18T17:53:51.773Z,3.77
2023-05-18T17:56:18.390Z,3.73
2023-05-18T17:58:44.969Z,3.40
2023-05-18T18:01:12.308Z,4.33
2023-05-18T18:03:39.036Z,3.30
2023-05-18T18:06:05.991Z,3.03
2023-05-18T18:08:32.530Z,3.37
2023-05-18T18:10:59.205Z,3.03
2023-05-18T18:13:26.146Z,2.87
2023-05-18T18:15:52.697Z,2.43
2023-05-18T18:18:19.319Z,3.77
2023-05-18T18:20:46.059Z,2.77
2023-05-18T18:23:12.726Z,2.77
2023-05-18T18:25:39.251Z,3.00
2023-05-18T18:28:08.182Z,3.93
2023-05-18T18:30:34.898Z,4.60
2023-05-18T18:33:01.594Z,4.10
2023-05-18T18:35:28.371Z,4.27
2023-05-18T18:37:55.013Z,4.30
2023-05-18T18:40:21.647Z,4.40
2023-05-18T18:42:48.220Z,6.10
2023-05-18T18:45:14.790Z,6.50
2023-05-18T18:47:41.504Z,7.27
2023-05-18T18:50:08.782Z,7.93
2023-05-18T18:52:35.539Z,7.43
2023-05-18T18:55:02.212Z,6.87
2023-05-18T18:57:28.878Z,6.83
2023-05-18T18:59:56.438Z,6.67
2023-05-18T19:02:23.825Z,7.87
2023-05-18T19:04:50.729Z,6.97
2023-05-18T19:07:17.297Z,7.30
2023-05-18T19:09:44.072Z,5.97
2023-05-18T19:12:10.706Z,6.80
2023-05-18T19:14:37.456Z,5.50
2023-05-18T19:17:04.141Z,5.40
2023-05-18T19:19:32.680Z,6.70
2023-05-18T19:21:59.306Z,6.57
2023-05-18T19:24:26.046Z,6.20
2023-05-18T19:26:52.637Z,5.57
2023-05-18T19:29:20.330Z,6.27
2023-05-18T19:31:46.979Z,6.50
2023-05-18T19:34:14.230Z,5.80
2023-05-18T19:36:40.917Z,6.87
2023-05-18T19:39:07.450Z,5.47
2023-05-18T19:41:34.045Z,4.83
2023-05-18T19:44:00.785Z,5.20
2023-05-18T19:46:27.561Z,6.53
2023-05-18T19:48:56.316Z,5.93
2023-05-18T19:51:23.772Z,6.20
2023-05-18T19:53:50.404Z,4.73
2023-05-18T19:56:16.938Z,6.10
2023-05-18T19:58:43.566Z,5.80
2023-05-18T20:01:10.288Z,5.70
2023-05-18T20:03:40.060Z,8.03
2023-05-18T20:06:08.214Z,5.83
2023-05-18T20:08:34.792Z,5.57
2023-05-18T20:11:01.322Z,5.10
2023-05-18T20:13:27.984Z,4.50
2023-05-18T20:15:55.054Z,3.90
2023-05-18T20:18:21.917Z,3.50
2023-05-18T20:20:50.042Z,3.00
2023-05-18T20:23:16.634Z,2.77
2023-05-18T20:25:45.092Z,2.97
2023-05-18T20:28:11.751Z,3.00
2023-05-18T20:30:38.313Z,3.07
2023-05-18T20:33:05.506Z,3.00
2023-05-18T20:35:32.245Z,2.90
2023-05-18T20:37:59.769Z,3.70
2023-05-18T20:40:26.690Z,3.50
2023-05-18T20:42:54.458Z,3.33
2023-05-18T20:45:29.549Z,3.13
2023-05-18T20:47:56.969Z,2.73
2023-05-18T20:50:24.166Z,5.37
2023-05-18T20:52:50.785Z,4.90
2023-05-18T20:55:18.470Z,4.53
2023-05-18T20:57:46.288Z,4.57
2023-05-18T21:00:13.131Z,4.77
2023-05-18T21:02:41.669Z,4.53
2023-05-18T21:05:08.494Z,5.20
2023-05-18T21:07:35.110Z,4.87
2023-05-18T21:10:02.169Z,5.73
2023-05-18T21:12:28.751Z,4.33
2023-05-18T21:14:55.315Z,4.60
2023-05-18T21:17:21.891Z,5.30
2023-05-18T21:19:49.373Z,5.30
2023-05-18T21:22:16.003Z,4.70
2023-05-18T21:24:42.626Z,4.93
2023-05-18T21:27:09.188Z,4.50
2023-05-18T21:29:35.827Z,4.83
2023-05-18T21:32:02.540Z,5.03
2023-05-18T21:34:29.208Z,4.83
2023-05-18T21:36:56.011Z,3.83
2023-05-18T21:39:22.566Z,5.70
2023-05-18T21:41:49.101Z,4.57
2023-05-18T21:44:15.723Z,4.30
2023-05-18T21:46:42.427Z,6.10
2023-05-18T21:49:09.162Z,4.23
2023-05-18T21:51:36.654Z,4.10
2023-05-18T21:54:04.381Z,4.67
2023-05-18T21:56:31.032Z,9.87
2023-05-18T21:58:57.559Z,4.17
2023-05-18T22:01:24.229Z,4.13
2023-05-18T22:03:50.984Z,3.23
2023-05-18T22:06:18.153Z,3.50
2023-05-18T22:08:44.940Z,3.37
2023-05-18T22:11:11.872Z,2.97
2023-05-18T22:13:38.468Z,3.57
2023-05-18T22:16:05.182Z,3.57
2023-05-18T22:18:31.786Z,2.53
2023-05-18T22:20:59.161Z,3.00
2023-05-18T22:23:25.937Z,2.97
2023-05-18T22:25:52.521Z,2.90
2023-05-18T22:28:21.738Z,2.70
2023-05-18T22:30:48.713Z,2.63
2023-05-18T22:33:15.348Z,2.93
2023-05-18T22:35:41.935Z,2.80
2023-05-18T22:38:08.670Z,3.23
2023-05-18T22:40:35.236Z,2.87
2023-05-18T22:43:01.789Z,2.50
2023-05-18T22:45:28.304Z,2.93
2023-05-18T22:47:54.865Z,4.03
2023-05-18T22:50:21.668Z,4.00
2023-05-18T22:52:48.278Z,3.37
2023-05-18T22:55:14.811Z,5.07
2023-05-18T22:57:41.494Z,2.70
2023-05-18T23:00:09.284Z,3.63
2023-05-18T23:02:36.057Z,3.23
2023-05-18T23:05:02.662Z,3.00
2023-05-18T23:07:30.525Z,3.30
2023-05-18T23:09:57.125Z,3.40
2023-05-18T23:12:23.678Z,3.70
2023-05-18T23:14:54.920Z,3.23
2023-05-18T23:17:22.921Z,3.70
2023-05-18T23:19:50.551Z,3.27
2023-05-18T23:22:17.261Z,3.83
2023-05-18T23:24:43.893Z,3.57
2023-05-18T23:27:10.693Z,3.23
2023-05-18T23:29:38.412Z,4.20
2023-05-18T23:32:05.175Z,3.43
2023-05-18T23:34:32.216Z,3.63
2023-05-18T23:37:02.756Z,4.07
2023-05-18T23:39:29.544Z,3.47
2023-05-18T23:41:58.290Z,4.33
2023-05-18T23:44:25.197Z,3.90
2023-05-18T23:46:51.875Z,3.63
2023-05-18T23:49:18.484Z,3.40
2023-05-18T23:51:45.419Z,3.40
2023-05-18T23:54:13.168Z,3.73
2023-05-18T23:56:39.868Z,2.87
2023-05-18T23:59:06.953Z,3.80
